Time;durP1;ratioP1;P1;durP2;ratioP2;P2;SDS_P1;SDS_P2;PMS_P1;PMS_P2;Temp;Humidity;BMP_temperature;BMP_pressure;BME280_temperature;BME280_humidity;BME280_pressure;Samples;Min_cycle;Max_cycle;Signal;HPM_P1;HPM_P2
2022/01/20 13:15:27;;;;;;;65.83;36.93;;;102.70;2227.20;;;;;;5111387;27;20900;-66
2022/01/20 13:18:08;;;;;;;70.23;37.20;;;102.80;2227.20;;;;;;5103892;28;20039;-76
2022/01/20 13:20:40;;;;;;;77.43;38.57;;;102.80;2227.20;;;;;;5093257;28;20119;-65
2022/01/20 13:26:06;;;;;;;74.73;40.63;;;103.00;2227.20;;;;;;5069486;28;20044;-65
2022/01/20 13:28:32;;;;;;;76.50;40.13;;;103.10;2227.20;;;;;;5070397;28;20107;-67
2022/01/20 13:31:11;;;;;;;74.40;40.60;;;103.20;2227.20;;;;;;5070139;28;20388;-65
2022/01/20 13:33:39;;;;;;;72.47;37.57;;;103.30;2227.20;;;;;;5070955;28;20029;-67
2022/01/20 13:36:05;;;;;;;76.53;42.43;;;103.30;2227.20;;;;;;5104206;28;20418;-72
2022/01/20 13:38:38;;;;;;;70.73;41.17;;;103.30;2227.20;;;;;;5107568;28;20026;-78
2022/01/20 13:41:07;;;;;;;78.13;42.50;;;128.00;2252.80;;;;;;5107497;28;20027;-66
2022/01/20 13:46:29;;;;;;;85.43;48.60;;;128.10;2252.80;;;;;;5111016;28;20459;-64
2022/01/20 13:49:05;;;;;;;74.83;45.03;;;128.10;2252.80;;;;;;5110553;28;20059;-66
2022/01/20 13:51:31;;;;;;;74.97;42.93;;;128.10;2252.80;;;;;;5110619;28;20464;-66
2022/01/20 13:53:57;;;;;;;82.80;47.53;;;128.20;2252.80;;;;;;5110644;28;20085;-65
2022/01/20 13:56:22;;;;;;;80.30;48.03;;;128.30;2252.80;;;;;;5110550;28;20111;-65
2022/01/20 13:58:48;;;;;;;92.13;52.80;;;128.40;2252.80;;;;;;5110371;28;20028;-68
2022/01/20 14:01:14;;;;;;;102.20;58.40;;;128.40;2252.80;;;;;;5110248;28;20027;-66
2022/01/20 14:03:41;;;;;;;89.53;49.80;;;128.30;2252.80;;;;;;5110366;28;20016;-68
2022/01/20 14:06:07;;;;;;;84.20;48.53;;;128.20;2252.80;;;;;;5110243;28;20020;-67
2022/01/20 14:08:36;;;;;;;97.23;54.73;;;128.20;2252.80;;;;;;5105638;28;20463;-68
2022/01/20 14:11:03;;;;;;;112.13;56.30;;;128.20;2252.80;;;;;;5091121;28;20484;-66
2022/01/20 14:13:30;;;;;;;107.57;58.10;;;128.20;2252.80;;;;;;5091303;28;20063;-66
2022/01/20 14:15:57;;;;;;;95.97;55.13;;;128.20;2252.80;;;;;;5089731;28;20032;-67
2022/01/20 14:18:29;;;;;;;93.90;52.00;;;128.20;2252.80;;;;;;5092372;28;20061;-68
2022/01/20 14:20:55;;;;;;;85.10;49.10;;;128.30;2252.80;;;;;;5106241;28;20023;-65
2022/01/20 14:23:21;;;;;;;100.13;52.53;;;128.30;2252.80;;;;;;5094797;28;20443;-65
2022/01/20 14:25:48;;;;;;;104.47;56.75;;;128.20;2252.80;;;;;;5081756;28;20427;-66
2022/01/20 14:28:14;;;;;;;109.17;60.20;;;128.20;2252.80;;;;;;5075514;28;20119;-67
2022/01/20 14:30:42;;;;;;;116.43;59.33;;;128.10;2252.80;;;;;;5077289;28;20038;-84
2022/01/20 14:33:08;;;;;;;115.00;63.10;;;128.10;2252.80;;;;;;5074602;28;20039;-66
2022/01/20 14:35:34;;;;;;;98.73;58.03;;;128.10;2252.80;;;;;;5077830;28;20039;-65
2022/01/20 14:38:00;;;;;;;102.05;56.33;;;128.10;2252.80;;;;;;5075975;28;20036;-66
2022/01/20 14:40:26;;;;;;;98.57;56.80;;;128.10;2252.80;;;;;;5079808;28;20079;-67
2022/01/20 14:42:52;;;;;;;89.07;53.27;;;128.10;2252.80;;;;;;5085618;28;20055;-66
2022/01/20 14:45:21;;;;;;;87.63;50.37;;;128.10;2252.80;;;;;;5081743;28;20032;-83
2022/01/20 14:47:52;;;;;;;103.47;58.80;;;128.00;2252.80;;;;;;5092281;28;20035;-65
2022/01/20 14:50:27;;;;;;;119.83;64.60;;;128.00;2252.80;;;;;;5079511;28;20028;-65
2022/01/20 14:52:52;;;;;;;115.93;64.10;;;128.00;2252.80;;;;;;5085218;28;20033;-69
2022/01/20 14:55:19;;;;;;;126.05;72.38;;;128.00;2252.80;;;;;;5079060;28;20214;-65
2022/01/20 14:57:45;;;;;;;123.43;70.87;;;128.00;2252.80;;;;;;5089798;28;20062;-67
2022/01/20 15:00:15;;;;;;;129.60;72.13;;;128.00;2252.80;;;;;;5075281;28;20131;-66
2022/01/20 15:02:45;;;;;;;122.15;73.03;;;103.30;2227.20;;;;;;5074395;28;20028;-66
2022/01/20 15:05:12;;;;;;;131.90;72.93;;;128.00;2252.80;;;;;;5078342;28;20020;-85
2022/01/20 15:07:38;;;;;;;137.43;76.37;;;103.30;2227.20;;;;;;5087720;28;20472;-85
2022/01/20 15:10:05;;;;;;;144.10;75.87;;;103.30;2227.20;;;;;;5088752;28;20016;-78
2022/01/20 15:12:32;;;;;;;142.40;79.53;;;103.30;2227.20;;;;;;5065450;28;20024;-71
2022/01/20 15:14:58;;;;;;;152.10;82.33;;;103.30;2227.20;;;;;;5087766;28;20253;-66
2022/01/20 15:17:24;;;;;;;149.20;80.30;;;103.30;2227.20;;;;;;5083183;28;20460;-81
2022/01/20 15:19:50;;;;;;;140.67;78.10;;;103.30;2227.20;;;;;;5083319;28;20037;-66
2022/01/20 15:22:16;;;;;;;130.27;73.23;;;103.20;2227.20;;;;;;5092410;28;20125;-65
2022/01/20 15:24:42;;;;;;;124.77;71.90;;;103.20;2227.20;;;;;;5092691;28;20020;-67
2022/01/20 15:27:07;;;;;;;132.43;76.23;;;103.20;2227.20;;;;;;5080886;28;20448;-66
2022/01/20 15:29:33;;;;;;;130.10;75.30;;;103.20;2227.20;;;;;;5087680;28;20112;-66
2022/01/20 15:31:59;;;;;;;125.80;74.17;;;103.20;2227.20;;;;;;5084863;28;20435;-67
2022/01/20 15:34:25;;;;;;;128.60;75.40;;;103.10;2227.20;;;;;;5086344;28;20115;-66
2022/01/20 15:36:51;;;;;;;120.77;71.13;;;103.10;2227.20;;;;;;5084589;28;20016;-66
2022/01/20 15:39:18;;;;;;;125.97;73.70;;;103.10;2227.20;;;;;;5084294;28;20029;-66
2022/01/20 15:41:46;;;;;;;126.97;73.80;;;103.10;2227.20;;;;;;5089303;28;20024;-66
2022/01/20 15:44:12;;;;;;;142.90;78.37;;;103.10;2227.20;;;;;;5094802;28;20032;-66
2022/01/20 15:46:38;;;;;;;155.82;82.38;;;103.10;2227.20;;;;;;5077538;28;20488;-67
2022/01/20 15:49:05;;;;;;;174.40;90.03;;;103.10;2227.20;;;;;;5083661;28;20024;-67
2022/01/20 15:51:31;;;;;;;158.47;83.27;;;103.10;2227.20;;;;;;5085193;28;20020;-67
2022/01/20 15:53:58;;;;;;;139.25;74.88;;;103.10;2227.20;;;;;;5083503;28;20102;-66
2022/01/20 15:56:24;;;;;;;152.02;86.35;;;103.10;2227.20;;;;;;5084385;28;20031;-66
2022/01/20 15:58:50;;;;;;;132.38;78.28;;;103.10;2227.20;;;;;;5079847;28;20024;-66
2022/01/20 16:01:16;;;;;;;138.93;74.20;;;103.10;2227.20;;;;;;5094084;28;20032;-66
2022/01/20 16:03:42;;;;;;;136.03;76.13;;;103.10;2227.20;;;;;;5094673;28;20023;-67
2022/01/20 16:06:08;;;;;;;176.40;97.77;;;103.10;2227.20;;;;;;5078603;28;20435;-66
2022/01/20 16:08:34;;;;;;;203.23;108.63;;;103.10;2227.20;;;;;;5073383;28;20017;-66
2022/01/20 16:11:00;;;;;;;232.07;127.83;;;103.10;2227.20;;;;;;5071984;28;20027;-66
2022/01/20 16:13:26;;;;;;;211.88;116.45;;;103.00;2227.20;;;;;;5071828;28;20043;-67
2022/01/20 16:15:52;;;;;;;216.20;120.22;;;103.10;2227.20;;;;;;5059296;28;20029;-66
2022/01/20 16:18:20;;;;;;;236.23;127.77;;;103.10;2227.20;;;;;;5054011;28;20408;-66
2022/01/20 16:20:46;;;;;;;298.10;155.15;;;103.00;2227.20;;;;;;5053937;28;20094;-78
2022/01/20 16:23:13;;;;;;;265.40;140.33;;;103.00;2227.20;;;;;;5053318;28;20028;-66
2022/01/20 16:25:39;;;;;;;347.60;177.50;;;102.90;2227.20;;;;;;5053764;28;20059;-65
2022/01/20 16:28:07;;;;;;;382.33;196.87;;;102.90;2227.20;;;;;;5053568;28;20067;-65
2022/01/20 16:30:33;;;;;;;250.27;138.83;;;102.90;2227.20;;;;;;5053593;28;20453;-66
2022/01/20 16:32:59;;;;;;;392.57;180.17;;;102.80;2227.20;;;;;;5053310;28;20096;-65
2022/01/20 16:35:25;;;;;;;902.00;417.07;;;102.80;2227.20;;;;;;5053425;28;20064;-67
2022/01/20 16:37:51;;;;;;;727.00;340.80;;;102.80;2227.20;;;;;;5053693;28;20465;-68
2022/01/20 16:40:21;;;;;;;603.20;274.87;;;102.70;2227.20;;;;;;5053750;28;20024;-67
2022/01/20 16:42:48;;;;;;;571.37;250.17;;;102.80;2227.20;;;;;;5053264;28;20025;-67
2022/01/20 16:45:15;;;;;;;284.17;140.50;;;102.70;2227.20;;;;;;5066283;28;20040;-81
2022/01/20 16:47:42;;;;;;;220.33;122.27;;;102.70;2227.20;;;;;;5073382;28;20021;-81
2022/01/20 16:50:10;;;;;;;187.97;110.57;;;102.70;2227.20;;;;;;5073214;28;20021;-80
2022/01/20 16:52:37;;;;;;;173.10;101.33;;;102.70;2227.20;;;;;;5071959;28;20033;-65
2022/01/20 16:55:04;;;;;;;169.73;99.33;;;102.70;2227.20;;;;;;5071838;28;20032;-66
2022/01/20 16:57:30;;;;;;;314.90;130.17;;;102.70;2227.20;;;;;;5073304;28;20122;-66
2022/01/20 16:59:56;;;;;;;214.90;106.13;;;102.60;2227.20;;;;;;5073283;28;20314;-75
2022/01/20 17:02:39;;;;;;;194.07;100.13;;;102.60;2227.20;;;;;;5072524;28;20031;-68
2022/01/20 17:05:06;;;;;;;166.93;90.50;;;102.60;2227.20;;;;;;5071988;28;20556;-65
2022/01/20 17:07:32;;;;;;;181.00;91.77;;;102.60;2227.20;;;;;;5071421;28;20039;-65
2022/01/20 17:09:58;;;;;;;174.00;86.93;;;102.60;2227.20;;;;;;5071297;28;20352;-66
2022/01/20 17:12:26;;;;;;;165.70;88.70;;;102.50;2227.20;;;;;;5071047;28;20045;-66
2022/01/20 17:14:52;;;;;;;158.53;87.43;;;102.60;2227.20;;;;;;5070902;28;20126;-66
2022/01/20 17:17:18;;;;;;;184.07;99.27;;;102.60;2227.20;;;;;;5071372;28;20527;-66
2022/01/20 17:19:44;;;;;;;177.63;94.27;;;102.60;2227.20;;;;;;5071297;28;20115;-66
2022/01/20 17:22:10;;;;;;;190.30;102.23;;;102.60;2227.20;;;;;;5072311;28;20048;-74
2022/01/20 17:24:36;;;;;;;184.53;100.30;;;102.60;2227.20;;;;;;5072459;28;20060;-74
2022/01/20 17:27:03;;;;;;;186.07;106.20;;;102.60;2227.20;;;;;;5073524;28;20453;-86
2022/01/20 17:29:29;;;;;;;195.83;108.83;;;102.70;2227.20;;;;;;5073035;28;20021;-74
2022/01/20 17:31:55;;;;;;;195.17;110.20;;;102.70;2227.20;;;;;;5072879;28;20024;-66
2022/01/20 17:34:21;;;;;;;255.50;134.73;;;102.70;2227.20;;;;;;5072796;28;20452;-66
2022/01/20 17:36:47;;;;;;;267.77;140.93;;;102.80;2227.20;;;;;;5072639;28;20052;-66
2022/01/20 17:39:13;;;;;;;271.20;145.17;;;102.80;2227.20;;;;;;5072699;28;20060;-69
2022/01/20 17:41:39;;;;;;;240.20;129.27;;;102.80;2227.20;;;;;;5072778;28;20021;-66
2022/01/20 17:44:10;;;;;;;225.97;122.20;;;102.80;2227.20;;;;;;5072506;28;20020;-67
2022/01/20 17:46:36;;;;;;;254.33;139.07;;;102.90;2227.20;;;;;;5072780;28;20052;-84
2022/01/20 17:49:02;;;;;;;296.90;169.50;;;102.90;2227.20;;;;;;5072600;28;20028;-66
2022/01/20 17:51:29;;;;;;;251.23;143.90;;;102.90;2227.20;;;;;;5073056;28;20055;-83
2022/01/20 17:53:55;;;;;;;235.97;136.37;;;102.90;2227.20;;;;;;5072647;28;20039;-67
2022/01/20 17:56:24;;;;;;;279.63;153.03;;;102.90;2227.20;;;;;;5072678;28;20025;-82
2022/01/20 17:58:50;;;;;;;306.00;167.03;;;102.90;2227.20;;;;;;5072563;28;20028;-75
2022/01/20 18:01:16;;;;;;;260.07;145.73;;;102.90;2227.20;;;;;;5074311;28;20378;-74
2022/01/20 18:03:43;;;;;;;257.27;144.50;;;102.90;2227.20;;;;;;5075616;28;20104;-72
2022/01/20 18:06:12;;;;;;;219.03;123.47;;;102.90;2227.20;;;;;;5075864;28;20016;-69
2022/01/20 18:08:39;;;;;;;202.13;114.47;;;102.90;2227.20;;;;;;5075817;28;20032;-70
2022/01/20 18:11:05;;;;;;;202.20;113.67;;;102.90;2227.20;;;;;;5075933;28;20024;-70
2022/01/20 18:13:31;;;;;;;195.77;107.40;;;102.90;2227.20;;;;;;5075155;28;20052;-72
2022/01/20 18:15:57;;;;;;;199.60;110.80;;;102.90;2227.20;;;;;;5075851;28;20051;-70
2022/01/20 18:18:24;;;;;;;216.70;118.73;;;102.90;2227.20;;;;;;5075499;28;20477;-71
2022/01/20 18:20:50;;;;;;;275.40;140.40;;;102.90;2227.20;;;;;;5075447;28;20021;-67
2022/01/20 18:23:16;;;;;;;309.30;149.17;;;103.00;2227.20;;;;;;5075903;28;20461;-73
2022/01/20 18:25:42;;;;;;;297.85;151.63;;;102.90;2227.20;;;;;;5075873;28;20031;-74
2022/01/20 18:28:08;;;;;;;211.23;112.85;;;102.90;2227.20;;;;;;5066910;28;20021;-70
2022/01/20 18:30:35;;;;;;;238.50;115.67;;;102.90;2227.20;;;;;;5075478;28;20025;-67
2022/01/20 18:33:00;;;;;;;267.07;117.53;;;102.90;2227.20;;;;;;5075350;28;20476;-67
2022/01/20 18:35:26;;;;;;;235.70;104.70;;;102.90;2227.20;;;;;;5075175;28;20123;-73
2022/01/20 18:37:55;;;;;;;191.70;91.33;;;102.90;2227.20;;;;;;5075294;28;20119;-69
2022/01/20 18:40:22;;;;;;;156.47;78.13;;;102.90;2227.20;;;;;;5075718;28;20126;-72
2022/01/20 18:42:48;;;;;;;136.87;74.67;;;102.90;2227.20;;;;;;5075410;28;20027;-73
2022/01/20 18:45:16;;;;;;;138.60;77.50;;;102.90;2227.20;;;;;;5055033;28;20899;-68
2022/01/20 18:47:43;;;;;;;124.03;69.63;;;102.90;2227.20;;;;;;5075447;28;20033;-73
2022/01/20 18:50:10;;;;;;;140.00;69.30;;;102.80;2227.20;;;;;;5075400;28;20103;-69
2022/01/20 18:52:36;;;;;;;184.55;82.18;;;102.90;2227.20;;;;;;5074892;28;20032;-67
2022/01/20 18:55:03;;;;;;;325.00;116.43;;;102.90;2227.20;;;;;;5074625;28;20037;-70
2022/01/20 18:57:29;;;;;;;262.95;107.60;;;102.80;2227.20;;;;;;5074887;28;20457;-71
2022/01/20 18:59:55;;;;;;;167.67;81.50;;;102.80;2227.20;;;;;;5074824;28;20025;-69
2022/01/20 19:02:21;;;;;;;121.27;65.23;;;102.80;2227.20;;;;;;5074922;28;20031;-68
2022/01/20 19:04:47;;;;;;;156.80;71.95;;;102.80;2227.20;;;;;;5074909;28;20039;-69
2022/01/20 19:07:13;;;;;;;275.67;112.25;;;102.80;2227.20;;;;;;5074776;28;20387;-72
2022/01/20 19:09:39;;;;;;;219.75;97.00;;;102.80;2227.20;;;;;;5075036;28;20150;-72
2022/01/20 19:12:06;;;;;;;145.70;77.37;;;102.80;2227.20;;;;;;5074620;28;20012;-70
2022/01/20 19:14:33;;;;;;;122.33;72.97;;;102.80;2227.20;;;;;;5074676;28;20135;-72
2022/01/20 19:17:01;;;;;;;104.40;59.80;;;102.70;2227.20;;;;;;5075199;28;20060;-73
2022/01/20 19:19:28;;;;;;;177.23;97.53;;;102.70;2227.20;;;;;;5075056;28;20123;-84
2022/01/20 19:21:54;;;;;;;152.37;84.07;;;102.60;2227.20;;;;;;5075134;28;20424;-84
2022/01/20 19:24:20;;;;;;;203.90;113.70;;;102.60;2227.20;;;;;;5074783;28;20035;-83
2022/01/20 19:26:47;;;;;;;173.05;106.80;;;102.50;2227.20;;;;;;5074954;28;20068;-82
2022/01/20 19:29:13;;;;;;;176.07;99.63;;;102.40;2227.20;;;;;;5074781;28;20465;-83
2022/01/20 19:31:39;;;;;;;169.52;98.75;;;102.40;2227.20;;;;;;5075027;28;20040;-82
2022/01/20 19:34:04;;;;;;;155.23;93.35;;;102.40;2227.20;;;;;;5074475;28;20041;-75
2022/01/20 19:36:30;;;;;;;178.33;100.17;;;102.40;2227.20;;;;;;5073127;28;20366;-65
2022/01/20 19:38:56;;;;;;;200.87;106.90;;;102.40;2227.20;;;;;;5075126;28;20024;-65
2022/01/20 19:41:24;;;;;;;214.07;112.65;;;102.40;2227.20;;;;;;5074693;28;20032;-64
2022/01/20 19:43:50;;;;;;;174.03;93.30;;;102.50;2227.20;;;;;;5074675;28;20461;-66
2022/01/20 19:46:16;;;;;;;164.97;90.13;;;102.40;2227.20;;;;;;5074920;28;20025;-84
2022/01/20 19:48:42;;;;;;;170.80;87.60;;;102.40;2227.20;;;;;;5074591;28;20469;-65
2022/01/20 19:51:07;;;;;;;134.27;80.03;;;102.40;2227.20;;;;;;5074573;28;20099;-66
2022/01/20 19:53:34;;;;;;;161.27;89.43;;;102.50;2227.20;;;;;;5074122;28;20036;-65
2022/01/20 19:55:59;;;;;;;146.27;83.47;;;102.50;2227.20;;;;;;5073692;28;20032;-67
2022/01/20 19:58:25;;;;;;;141.67;78.50;;;102.50;2227.20;;;;;;5074262;28;20154;-67
2022/01/20 20:00:51;;;;;;;163.53;94.80;;;102.50;2227.20;;;;;;5073929;28;20055;-68
2022/01/20 20:03:18;;;;;;;134.57;80.63;;;102.40;2227.20;;;;;;5074099;28;20048;-68
2022/01/20 20:05:45;;;;;;;138.37;79.33;;;102.40;2227.20;;;;;;5073255;28;20046;-67
2022/01/20 20:08:13;;;;;;;163.73;93.53;;;102.40;2227.20;;;;;;5073944;28;20476;-67
2022/01/20 20:10:39;;;;;;;150.57;89.23;;;77.70;2227.20;;;;;;5073882;28;20025;-68
2022/01/20 20:13:05;;;;;;;81.85;50.60;;;102.40;2227.20;;;;;;5073097;28;20503;-68
2022/01/20 20:15:32;;;;;;;93.97;59.00;;;102.40;2227.20;;;;;;5073138;28;20161;-69
2022/01/20 20:17:59;;;;;;;97.93;61.50;;;102.40;2227.20;;;;;;5073163;28;20031;-73
2022/01/20 20:20:26;;;;;;;144.03;89.77;;;102.40;2227.20;;;;;;5073191;28;20036;-69
2022/01/20 20:22:53;;;;;;;223.47;120.13;;;102.50;2227.20;;;;;;5073271;28;20036;-68
2022/01/20 20:25:19;;;;;;;123.75;76.38;;;102.50;2227.20;;;;;;5073562;28;20055;-74
2022/01/20 20:27:46;;;;;;;60.03;36.95;;;102.40;2227.20;;;;;;5063457;28;20178;-68
2022/01/20 20:30:15;;;;;;;37.72;21.42;;;102.40;2227.20;;;;;;5053939;28;20115;-73
2022/01/20 20:32:41;;;;;;;39.40;23.40;;;102.40;2227.20;;;;;;5053659;28;20040;-69
2022/01/20 20:35:08;;;;;;;35.67;20.10;;;102.40;2227.20;;;;;;5053475;28;20481;-70
2022/01/20 20:37:34;;;;;;;36.97;23.43;;;102.40;2227.20;;;;;;5053333;28;20047;-70
2022/01/20 20:40:00;;;;;;;39.92;23.63;;;102.50;2227.20;;;;;;5053491;28;20104;-70
2022/01/20 20:42:26;;;;;;;39.43;23.60;;;102.70;2227.20;;;;;;5053244;28;20104;-78
2022/01/20 20:44:56;;;;;;;42.30;24.33;;;102.40;2227.20;;;;;;5071848;28;20056;-69
2022/01/20 20:47:22;;;;;;;38.17;20.57;;;102.40;2227.20;;;;;;5070409;28;20099;-70
2022/01/20 20:49:48;;;;;;;32.30;18.77;;;102.40;2227.20;;;;;;5072977;28;20509;-76
2022/01/20 20:52:14;;;;;;;32.00;18.47;;;102.40;2227.20;;;;;;5072868;28;20059;-71
2022/01/20 20:54:42;;;;;;;33.87;18.27;;;102.40;2227.20;;;;;;5073240;28;20161;-87
2022/01/20 20:57:08;;;;;;;30.80;16.73;;;102.40;2227.20;;;;;;5073783;28;20035;-72
2022/01/20 20:59:34;;;;;;;30.67;15.07;;;102.40;2227.20;;;;;;5073922;28;20085;-85
2022/01/20 21:02:00;;;;;;;19.13;11.13;;;77.70;2227.20;;;;;;5073897;28;20024;-87
2022/01/20 21:04:27;;;;;;;20.83;10.90;;;77.70;2227.20;;;;;;5074012;28;20086;-87
2022/01/20 21:06:56;;;;;;;20.37;10.57;;;77.70;2227.20;;;;;;5073185;28;20051;-76
2022/01/20 21:09:22;;;;;;;14.63;8.23;;;77.70;2227.20;;;;;;5073425;28;20036;-68
2022/01/20 21:11:52;;;;;;;13.30;7.50;;;77.70;2227.20;;;;;;5073395;28;20525;-68
2022/01/20 21:14:18;;;;;;;16.80;8.67;;;77.60;2227.20;;;;;;5073123;28;20048;-82
2022/01/20 21:16:44;;;;;;;18.57;8.97;;;77.70;2227.20;;;;;;5072554;28;20025;-83
2022/01/20 21:19:10;;;;;;;17.80;7.97;;;77.70;2227.20;;;;;;5072181;28;20529;-83
2022/01/20 21:21:36;;;;;;;17.97;8.17;;;77.60;2227.20;;;;;;5071446;28;20029;-83
2022/01/20 21:24:02;;;;;;;15.70;8.13;;;77.60;2227.20;;;;;;5071583;28;20028;-83
2022/01/20 21:26:28;;;;;;;19.20;9.80;;;77.60;2227.20;;;;;;5072726;28;20060;-82
2022/01/20 21:28:54;;;;;;;19.53;10.60;;;77.60;2227.20;;;;;;5072510;28;20098;-83
2022/01/20 21:31:20;;;;;;;14.60;9.10;;;77.60;2227.20;;;;;;5072542;28;20496;-83
2022/01/20 21:33:48;;;;;;;13.40;7.80;;;77.50;2227.20;;;;;;5072503;28;20123;-83
2022/01/20 21:36:17;;;;;;;8.57;5.03;;;77.50;2227.20;;;;;;5075015;28;20116;-83
2022/01/20 21:38:46;;;;;;;10.53;6.10;;;77.50;2227.20;;;;;;5076742;28;20024;-75
2022/01/20 21:41:15;;;;;;;11.50;6.47;;;77.50;2227.20;;;;;;5076556;28;20369;-81
2022/01/20 21:43:41;;;;;;;11.27;6.13;;;77.50;2227.20;;;;;;5076662;28;20028;-83
2022/01/20 21:46:08;;;;;;;9.63;4.40;;;77.50;2227.20;;;;;;5076431;28;20032;-79
2022/01/20 21:48:35;;;;;;;7.33;4.30;;;77.40;2227.20;;;;;;5076168;28;20099;-69
2022/01/20 21:51:04;;;;;;;9.43;5.23;;;77.40;2227.20;;;;;;5075994;28;20544;-72
2022/01/20 21:53:30;;;;;;;8.70;4.80;;;77.40;2227.20;;;;;;5076170;28;20104;-69
2022/01/20 21:55:56;;;;;;;11.40;6.40;;;77.40;2227.20;;;;;;5076245;28;20040;-83
2022/01/20 21:58:22;;;;;;;9.40;4.97;;;77.40;2227.20;;;;;;5076529;28;20016;-84
2022/01/20 22:00:48;;;;;;;8.05;4.50;;;77.40;2227.20;;;;;;5076304;28;20419;-84
2022/01/20 22:03:16;;;;;;;11.93;5.43;;;77.30;2227.20;;;;;;5076671;28;20021;-85
2022/01/20 22:05:43;;;;;;;7.50;4.33;;;77.30;2227.20;;;;;;5076376;28;20031;-84
2022/01/20 22:08:10;;;;;;;8.33;4.87;;;77.20;2227.20;;;;;;5076573;28;20468;-85
2022/01/20 22:10:45;;;;;;;11.17;4.77;;;77.30;2227.20;;;;;;5076575;28;20031;-85
2022/01/20 22:13:25;;;;;;;17.70;6.80;;;77.20;2227.20;;;;;;5076322;28;20021;-82
2022/01/20 22:15:53;;;;;;;12.03;5.17;;;77.30;2227.20;;;;;;5075724;28;20033;-70
2022/01/20 22:18:21;;;;;;;10.13;4.93;;;77.30;2227.20;;;;;;5075478;28;20380;-70
2022/01/20 22:20:48;;;;;;;27.07;10.07;;;77.30;2227.20;;;;;;5075831;28;20122;-70
2022/01/20 22:23:14;;;;;;;29.33;9.87;;;77.30;2227.20;;;;;;5075443;28;20055;-84
2022/01/20 22:25:41;;;;;;;22.13;8.70;;;77.20;2227.20;;;;;;5075386;28;20056;-85
2022/01/20 22:28:07;;;;;;;15.30;7.43;;;77.30;2227.20;;;;;;5076416;28;20213;-84
2022/01/20 22:30:34;;;;;;;18.50;7.33;;;77.30;2227.20;;;;;;5076362;28;20021;-84
2022/01/20 22:33:00;;;;;;;9.03;4.90;;;77.20;2227.20;;;;;;5076051;28;20032;-83
2022/01/20 22:35:27;;;;;;;9.77;4.67;;;77.20;2227.20;;;;;;5075454;28;20032;-85
2022/01/20 22:37:53;;;;;;;7.83;3.70;;;77.20;2227.20;;;;;;5075888;28;20046;-85
2022/01/20 22:40:19;;;;;;;7.83;3.50;;;77.20;2227.20;;;;;;5075838;28;20027;-85
2022/01/20 22:42:48;;;;;;;8.13;3.87;;;77.20;2227.20;;;;;;5075977;28;20404;-84
2022/01/20 22:45:14;;;;;;;7.63;3.77;;;77.20;2227.20;;;;;;5074873;28;20046;-84
2022/01/20 22:47:41;;;;;;;10.17;2.97;;;77.10;2227.20;;;;;;5074702;28;20078;-77
2022/01/20 22:50:16;;;;;;;6.20;2.60;;;77.10;2227.20;;;;;;5075640;28;20017;-85
2022/01/20 22:52:42;;;;;;;8.63;2.80;;;77.10;2227.20;;;;;;5075533;28;20027;-84
2022/01/20 22:55:09;;;;;;;6.53;2.63;;;77.10;2227.20;;;;;;5075183;28;20051;-70
2022/01/20 22:57:35;;;;;;;6.70;3.30;;;77.00;2227.20;;;;;;5074527;28;20027;-70
2022/01/20 23:00:11;;;;;;;6.10;3.00;;;77.10;2227.20;;;;;;5075037;28;20029;-71
2022/01/20 23:02:37;;;;;;;6.60;2.73;;;77.00;2227.20;;;;;;5074822;28;20465;-70
2022/01/20 23:05:03;;;;;;;8.33;3.30;;;77.10;2227.20;;;;;;5074923;28;20108;-70
2022/01/20 23:07:29;;;;;;;7.53;2.83;;;77.10;2227.20;;;;;;5074440;28;20025;-70
2022/01/20 23:09:55;;;;;;;7.07;3.23;;;77.00;2227.20;;;;;;5074639;28;20388;-71
2022/01/20 23:12:21;;;;;;;7.20;2.60;;;77.00;2227.20;;;;;;5074807;28;20028;-83
2022/01/20 23:14:46;;;;;;;7.63;2.93;;;77.00;2227.20;;;;;;5074890;28;20094;-85
2022/01/20 23:17:30;;;;;;;8.83;3.40;;;77.00;2227.20;;;;;;5075135;28;20032;-86
2022/01/20 23:22:42;;;;;;;6.57;3.00;;;77.00;2227.20;;;;;;5075208;28;20027;-84
2022/01/20 23:25:08;;;;;;;8.37;2.83;;;77.00;2227.20;;;;;;5075153;28;20465;-82
2022/01/20 23:27:34;;;;;;;9.50;3.73;;;77.00;2227.20;;;;;;5074678;28;20103;-82
2022/01/20 23:30:03;;;;;;;6.73;3.13;;;77.00;2227.20;;;;;;5074272;28;20021;-84
2022/01/20 23:32:29;;;;;;;10.87;4.07;;;77.00;2227.20;;;;;;5075135;28;20048;-84
2022/01/20 23:34:54;;;;;;;8.90;3.90;;;77.00;2227.20;;;;;;5073786;28;20071;-84
2022/01/20 23:37:20;;;;;;;7.40;4.10;;;77.00;2227.20;;;;;;5074982;28;20048;-84
2022/01/20 23:39:46;;;;;;;8.57;4.03;;;76.90;2227.20;;;;;;5074875;28;20099;-83
2022/01/20 23:42:18;;;;;;;8.33;3.90;;;77.00;2227.20;;;;;;5075033;28;20017;-84
2022/01/20 23:45:19;;;;;;;8.70;3.63;;;77.00;2227.20;;;;;;5074986;28;20466;-84
2022/01/20 23:50:17;;;;;;;10.80;3.90;;;76.90;2227.20;;;;;;5074967;28;20048;-82
2022/01/20 23:52:43;;;;;;;11.70;4.87;;;76.90;2227.20;;;;;;5074292;28;20029;-84
2022/01/20 23:55:10;;;;;;;10.47;4.53;;;77.00;2227.20;;;;;;5074273;28;20130;-84
2022/01/20 23:57:36;;;;;;;12.43;4.63;;;76.90;2227.20;;;;;;5073809;28;20113;-84
